createdAt,value
2022-09-23T00:01:39.613Z,16.19
2022-09-23T00:04:07.480Z,14.93
2022-09-23T00:06:35.321Z,13.72
2022-09-23T00:09:03.458Z,13.19
2022-09-23T00:11:33.071Z,14.31
2022-09-23T00:14:01.493Z,15.33
2022-09-23T00:16:34.253Z,15.96
2022-09-23T00:19:03.458Z,16.05
2022-09-23T00:21:31.367Z,14.79
2022-09-23T00:23:59.302Z,13.52
2022-09-23T00:26:27.984Z,13.03
2022-09-23T00:28:55.920Z,14.28
2022-09-23T00:31:26.392Z,15.32
2022-09-23T00:34:04.228Z,15.94
2022-09-23T00:36:32.565Z,15.91
2022-09-23T00:39:00.685Z,14.61
2022-09-23T00:41:28.639Z,13.36
2022-09-23T00:44:00.974Z,12.84
2022-09-23T00:46:36.245Z,14.08
2022-09-23T00:49:11.140Z,15.16
2022-09-23T00:51:45.653Z,15.73
2022-09-23T00:54:13.612Z,15.64
2022-09-23T00:56:41.686Z,14.40
2022-09-23T00:59:10.899Z,13.15
2022-09-23T01:01:39.956Z,12.69
2022-09-23T01:04:08.804Z,13.95
2022-09-23T01:06:36.731Z,15.08
2022-09-23T01:09:04.711Z,15.69
2022-09-23T01:11:54.256Z,15.80
2022-09-23T01:14:37.393Z,14.44
2022-09-23T01:17:24.424Z,13.15
2022-09-23T01:20:20.552Z,12.74
2022-09-23T01:23:11.546Z,14.11
2022-09-23T01:25:41.064Z,14.90
2022-09-23T01:28:19.023Z,15.38
2022-09-23T01:31:24.364Z,15.42
2022-09-23T01:34:04.948Z,13.77
2022-09-23T01:37:08.167Z,12.99
2022-09-23T01:39:39.295Z,14.40
2022-09-23T01:42:29.609Z,15.25
2022-09-23T01:45:15.004Z,15.27
2022-09-23T01:47:55.075Z,13.71
2022-09-23T01:50:51.794Z,12.89
2022-09-23T01:53:43.709Z,14.28
2022-09-23T01:56:32.791Z,15.22
2022-09-23T01:59:10.430Z,15.25
2022-09-23T02:01:51.351Z,13.83
2022-09-23T02:04:51.688Z,12.97
2022-09-23T02:07:30.190Z,14.36
2022-09-23T02:10:06.976Z,15.30
2022-09-23T02:12:38.411Z,15.48
2022-09-23T02:15:12.230Z,14.23
2022-09-23T02:17:49.857Z,13.35
2022-09-23T02:20:24.371Z,14.39
2022-09-23T02:22:56.834Z,15.29
2022-09-23T02:25:35.498Z,15.82
2022-09-23T02:28:11.845Z,15.72
2022-09-23T02:31:00.335Z,14.29
2022-09-23T02:33:36.698Z,12.91
2022-09-23T02:36:19.593Z,12.45
2022-09-23T02:38:59.266Z,13.75
2022-09-23T02:41:37.630Z,14.91
2022-09-23T02:44:12.875Z,15.47
2022-09-23T02:46:43.439Z,15.37
2022-09-23T02:49:24.824Z,13.99
2022-09-23T02:52:00.688Z,12.60
2022-09-23T02:54:29.597Z,12.12
2022-09-23T02:57:02.970Z,13.42
2022-09-23T02:59:31.451Z,14.58
2022-09-23T03:02:14.190Z,15.12
2022-09-23T03:04:50.491Z,14.94
2022-09-23T03:07:49.936Z,13.43
2022-09-23T03:10:26.398Z,11.99
2022-09-23T03:13:04.997Z,11.63
2022-09-23T03:16:00.013Z,12.98
2022-09-23T03:18:51.541Z,14.07
2022-09-23T03:21:54.298Z,14.52
2022-09-23T03:24:25.044Z,14.21
2022-09-23T03:26:55.294Z,12.74
2022-09-23T03:29:23.765Z,11.48
2022-09-23T03:31:53.446Z,10.98
2022-09-23T03:34:27.171Z,12.22
2022-09-23T03:37:01.246Z,13.27
2022-09-23T03:39:51.073Z,13.81
2022-09-23T03:42:23.677Z,14.04
2022-09-23T03:44:57.532Z,13.82
2022-09-23T03:47:27.770Z,12.46
2022-09-23T03:49:56.903Z,11.50
2022-09-23T03:52:26.355Z,12.23
2022-09-23T03:55:51.004Z,12.90
2022-09-23T03:58:38.295Z,13.76
2022-09-23T04:01:06.338Z,14.16
2022-09-23T04:03:34.311Z,14.51
2022-09-23T04:06:02.174Z,14.70
2022-09-23T04:08:30.094Z,14.32
2022-09-23T04:11:02.831Z,13.04
2022-09-23T04:13:32.024Z,12.15
2022-09-23T04:16:00.023Z,12.97
2022-09-23T04:18:28.039Z,13.66
2022-09-23T04:21:02.640Z,14.11
2022-09-23T04:23:30.874Z,14.22
2022-09-23T04:25:58.850Z,14.14
2022-09-23T04:28:26.985Z,14.16
2022-09-23T04:30:56.302Z,14.19
2022-09-23T04:33:25.483Z,14.36
2022-09-23T04:35:55.323Z,14.41
2022-09-23T04:38:23.617Z,14.47
2022-09-23T04:40:51.598Z,14.62
2022-09-23T04:43:23.525Z,14.45
2022-09-23T04:46:03.329Z,13.10
2022-09-23T04:48:31.950Z,12.18
2022-09-23T04:51:04.963Z,13.03
2022-09-23T04:53:33.614Z,14.00
2022-09-23T04:56:29.020Z,14.31
2022-09-23T04:58:58.428Z,14.48
2022-09-23T05:01:29.168Z,14.44
2022-09-23T05:04:02.592Z,14.82
2022-09-23T05:06:32.419Z,14.36
2022-09-23T05:09:00.855Z,12.73
2022-09-23T05:11:31.428Z,11.98
2022-09-23T05:14:00.021Z,12.91
2022-09-23T05:16:28.136Z,14.03
2022-09-23T05:18:56.360Z,14.62
2022-09-23T05:21:27.048Z,13.44
2022-09-23T05:23:59.175Z,12.30
2022-09-23T05:26:30.068Z,13.24
2022-09-23T05:28:58.731Z,14.20
2022-09-23T05:31:29.671Z,14.73
2022-09-23T05:34:00.852Z,15.00
2022-09-23T05:36:35.554Z,14.97
2022-09-23T05:39:07.077Z,13.61
2022-09-23T05:41:36.119Z,12.77
2022-09-23T05:44:04.368Z,13.66
2022-09-23T05:46:33.339Z,14.48
2022-09-23T05:49:03.285Z,14.87
2022-09-23T05:51:34.825Z,15.22
2022-09-23T05:54:08.859Z,15.18
2022-09-23T05:56:37.919Z,13.75
2022-09-23T05:59:06.965Z,12.90
2022-09-23T06:01:36.835Z,13.83
2022-09-23T06:04:08.337Z,14.85
2022-09-23T06:06:41.553Z,15.54
2022-09-23T06:09:16.282Z,15.29
2022-09-23T06:11:44.290Z,13.65
2022-09-23T06:14:14.955Z,12.83
2022-09-23T06:16:43.282Z,13.85
2022-09-23T06:19:11.436Z,14.66
2022-09-23T06:21:41.070Z,14.98
2022-09-23T06:24:09.811Z,15.22
2022-09-23T06:26:38.962Z,14.22
2022-09-23T06:29:11.966Z,12.76
2022-09-23T06:31:41.825Z,12.52
2022-09-23T06:34:13.478Z,13.74
2022-09-23T06:36:45.564Z,14.73
2022-09-23T06:39:15.643Z,15.08
2022-09-23T06:41:45.459Z,15.20
2022-09-23T06:44:14.887Z,13.74
2022-09-23T06:46:43.128Z,12.81
2022-09-23T06:49:12.290Z,13.79
2022-09-23T06:51:41.180Z,14.50
2022-09-23T06:54:09.596Z,14.93
2022-09-23T06:56:39.726Z,15.33
2022-09-23T06:59:13.258Z,14.88
2022-09-23T07:01:41.915Z,13.47
2022-09-23T07:04:10.886Z,12.85
2022-09-23T07:06:39.191Z,14.09
2022-09-23T07:09:08.695Z,15.20
2022-09-23T07:11:37.148Z,15.88
2022-09-23T07:14:05.685Z,16.07
2022-09-23T07:16:33.669Z,15.00
2022-09-23T07:19:01.614Z,13.73
2022-09-23T07:21:29.600Z,13.51
2022-09-23T07:23:58.382Z,14.65
2022-09-23T07:26:26.479Z,15.59
2022-09-23T07:28:57.032Z,16.10
2022-09-23T07:31:37.005Z,15.59
2022-09-23T07:34:07.883Z,14.18
2022-09-23T07:36:37.645Z,13.60
2022-09-23T07:39:05.633Z,14.76
2022-09-23T07:41:34.619Z,15.79
2022-09-23T07:44:03.297Z,16.21
2022-09-23T07:46:33.406Z,16.10
2022-09-23T07:49:05.539Z,15.00
2022-09-23T07:51:39.653Z,13.90
2022-09-23T07:54:13.250Z,13.52
2022-09-23T07:56:47.980Z,14.84
2022-09-23T07:59:18.469Z,15.86
2022-09-23T08:01:49.136Z,16.17
2022-09-23T08:04:24.303Z,15.12
2022-09-23T08:06:55.268Z,13.86
2022-09-23T08:09:27.155Z,13.48
2022-09-23T08:11:56.530Z,14.89
2022-09-23T08:14:24.946Z,15.75
2022-09-23T08:16:53.776Z,16.23
2022-09-23T08:19:21.690Z,16.25
2022-09-23T08:21:52.307Z,15.06
2022-09-23T08:24:24.359Z,13.91
2022-09-23T08:26:54.468Z,13.52
2022-09-23T08:29:25.032Z,14.68
2022-09-23T08:31:53.915Z,16.03
2022-09-23T08:34:24.418Z,16.66
2022-09-23T08:36:52.487Z,15.73
2022-09-23T08:39:21.066Z,14.76
2022-09-23T08:42:13.510Z,15.29
2022-09-23T08:44:53.656Z,17.07
2022-09-23T08:47:32.488Z,16.94
2022-09-23T08:50:11.768Z,15.82
2022-09-23T08:52:58.731Z,14.88
2022-09-23T08:55:42.554Z,14.90
2022-09-23T08:58:26.044Z,16.28
2022-09-23T09:01:10.769Z,16.30
2022-09-23T09:03:59.186Z,15.26
2022-09-23T09:06:53.543Z,14.68
2022-09-23T09:09:33.798Z,16.09
2022-09-23T09:12:24.189Z,15.90
2022-09-23T09:15:02.818Z,14.54
2022-09-23T09:17:38.512Z,14.52
2022-09-23T09:20:17.551Z,16.11
2022-09-23T09:23:00.750Z,17.02
2022-09-23T09:25:49.861Z,16.11
2022-09-23T09:28:27.025Z,15.05
2022-09-23T09:31:00.046Z,15.26
2022-09-23T09:34:03.095Z,16.58
2022-09-23T09:36:45.957Z,16.27
2022-09-23T09:39:15.317Z,15.21
2022-09-23T09:41:50.880Z,14.51
2022-09-23T09:44:27.051Z,14.86
2022-09-23T09:47:36.745Z,16.38
2022-09-23T09:50:11.063Z,17.22
2022-09-23T09:52:39.909Z,16.14
2022-09-23T09:55:13.715Z,15.63
2022-09-23T09:58:06.010Z,15.29
2022-09-23T10:00:43.259Z,15.02
2022-09-23T10:03:38.249Z,14.82
2022-09-23T10:06:17.451Z,14.51
2022-09-23T10:09:13.977Z,14.20
2022-09-23T10:11:42.258Z,13.81
2022-09-23T10:14:18.668Z,13.68
2022-09-23T10:17:05.595Z,15.06
2022-09-23T10:19:37.243Z,16.95
2022-09-23T10:22:17.122Z,16.52
2022-09-23T10:24:49.884Z,15.99
2022-09-23T10:27:27.227Z,15.76
2022-09-23T10:30:01.458Z,15.60
2022-09-23T10:32:40.169Z,15.37
2022-09-23T10:35:14.706Z,15.13
2022-09-23T10:37:49.727Z,15.05
2022-09-23T10:40:36.580Z,15.01
2022-09-23T10:43:35.852Z,14.88
2022-09-23T10:46:27.000Z,14.82
2022-09-23T10:49:13.505Z,14.89
2022-09-23T10:51:56.221Z,15.08
2022-09-23T10:54:32.973Z,15.22
2022-09-23T10:57:36.047Z,15.35
2022-09-23T11:00:22.471Z,15.49
2022-09-23T11:03:19.570Z,15.52
2022-09-23T11:06:20.101Z,15.47
2022-09-23T11:09:28.524Z,15.49
2022-09-23T11:12:21.435Z,15.37
2022-09-23T11:15:33.196Z,15.22
2022-09-23T11:18:35.339Z,14.90
2022-09-23T11:21:15.188Z,14.81
2022-09-23T11:24:05.123Z,14.96
2022-09-23T11:26:42.480Z,14.93
2022-09-23T11:29:33.102Z,14.71
2022-09-23T11:32:28.480Z,14.70
2022-09-23T11:35:24.539Z,14.96
2022-09-23T11:38:01.766Z,15.30
2022-09-23T11:40:42.361Z,15.59
2022-09-23T11:43:18.648Z,15.88
2022-09-23T11:46:02.834Z,16.17
2022-09-23T11:48:43.926Z,16.34
2022-09-23T11:51:21.989Z,16.29
2022-09-23T11:54:35.202Z,16.09
2022-09-23T11:57:07.318Z,15.58
2022-09-23T12:02:30.859Z,14.99
2022-09-23T12:05:08.479Z,15.13
2022-09-23T12:07:57.478Z,15.50
2022-09-23T12:10:57.826Z,15.69
2022-09-23T12:13:49.176Z,15.66
2022-09-23T12:16:49.246Z,15.87
2022-09-23T12:19:39.027Z,16.01
2022-09-23T12:22:42.784Z,16.19
2022-09-23T12:25:31.144Z,16.16
2022-09-23T12:28:11.766Z,15.88
2022-09-23T12:30:40.735Z,15.78
2022-09-23T12:33:26.570Z,16.03
2022-09-23T12:36:06.962Z,16.48
2022-09-23T12:38:38.817Z,16.94
2022-09-23T12:41:29.972Z,17.22
2022-09-23T12:44:15.734Z,17.62
2022-09-23T12:46:45.723Z,17.93
2022-09-23T12:49:37.294Z,18.00
2022-09-23T12:52:17.507Z,17.90
2022-09-23T12:54:47.253Z,17.90
2022-09-23T12:57:33.779Z,18.01
2022-09-23T13:00:12.781Z,18.11
2022-09-23T13:02:47.039Z,18.21
2022-09-23T13:05:44.718Z,18.36
2022-09-23T13:08:15.162Z,18.23
2022-09-23T13:10:49.546Z,17.83
2022-09-23T13:13:26.870Z,17.37
2022-09-23T13:15:55.129Z,17.13
2022-09-23T13:18:25.513Z,17.16
2022-09-23T13:20:55.127Z,17.30
2022-09-23T13:23:28.103Z,17.40
2022-09-23T13:25:59.624Z,17.56
2022-09-23T13:28:41.886Z,17.71
2022-09-23T13:31:16.064Z,17.86
2022-09-23T13:33:49.159Z,17.95
2022-09-23T13:36:18.920Z,17.89
2022-09-23T13:38:47.245Z,17.72
2022-09-23T13:41:17.311Z,17.53
2022-09-23T13:43:52.116Z,17.36
2022-09-23T13:46:25.286Z,17.25
2022-09-23T13:48:54.937Z,17.23
2022-09-23T13:51:34.166Z,17.27
2022-09-23T13:54:05.319Z,17.28
2022-09-23T13:56:36.666Z,17.29
2022-09-23T13:59:16.340Z,17.30
2022-09-23T14:01:47.184Z,17.25
2022-09-23T14:04:26.000Z,17.26
2022-09-23T14:06:54.715Z,17.42
2022-09-23T14:09:29.080Z,17.57
2022-09-23T14:12:00.259Z,17.76
2022-09-23T14:14:30.513Z,18.05
2022-09-23T14:16:59.456Z,18.29
2022-09-23T14:19:27.472Z,18.36
2022-09-23T14:21:56.646Z,18.44
2022-09-23T14:24:30.664Z,18.73
2022-09-23T14:27:16.362Z,18.93
2022-09-23T14:29:49.540Z,18.72
2022-09-23T14:32:21.250Z,18.35
2022-09-23T14:34:50.428Z,17.90
2022-09-23T14:37:37.145Z,17.63
2022-09-23T14:40:17.543Z,17.39
2022-09-23T14:43:03.852Z,17.21
2022-09-23T14:45:40.559Z,17.20
2022-09-23T14:48:23.181Z,17.49
2022-09-23T14:51:02.622Z,17.94
2022-09-23T14:53:40.922Z,18.41
2022-09-23T14:56:08.796Z,18.98
2022-09-23T14:58:55.603Z,19.34
2022-09-23T15:01:35.908Z,19.57
2022-09-23T15:04:28.141Z,19.36
2022-09-23T15:06:59.797Z,18.72
2022-09-23T15:09:31.099Z,18.31
2022-09-23T15:12:15.166Z,17.93
2022-09-23T15:14:46.683Z,17.45
2022-09-23T15:17:35.266Z,17.05
2022-09-23T15:20:08.504Z,16.58
2022-09-23T15:22:48.786Z,16.21
2022-09-23T15:25:22.571Z,16.06
2022-09-23T15:28:08.777Z,16.21
2022-09-23T15:30:38.389Z,16.49
2022-09-23T15:33:07.098Z,16.80
2022-09-23T15:35:36.322Z,17.13
2022-09-23T15:38:04.331Z,17.47
2022-09-23T15:40:35.531Z,18.03
2022-09-23T15:43:21.174Z,18.62
2022-09-23T15:45:53.379Z,19.12
2022-09-23T15:48:28.969Z,19.65
2022-09-23T15:50:59.307Z,20.33
2022-09-23T15:53:28.312Z,21.00
2022-09-23T15:55:58.732Z,21.31
2022-09-23T15:58:27.800Z,21.54
2022-09-23T16:00:57.258Z,21.85
2022-09-23T16:03:28.782Z,22.10
2022-09-23T16:06:01.347Z,22.11
2022-09-23T16:08:32.481Z,21.96
2022-09-23T16:11:00.548Z,21.90
2022-09-23T16:13:28.631Z,21.70
2022-09-23T16:15:56.644Z,21.40
2022-09-23T16:18:24.676Z,20.84
2022-09-23T16:20:52.677Z,20.11
2022-09-23T16:23:35.818Z,19.31
2022-09-23T16:26:06.589Z,18.23
2022-09-23T16:28:34.920Z,17.29
2022-09-23T16:31:03.238Z,16.39
2022-09-23T16:33:31.131Z,15.57
2022-09-23T16:36:02.385Z,14.84
2022-09-23T16:38:32.084Z,14.20
2022-09-23T16:41:00.824Z,13.75
2022-09-23T16:43:32.786Z,13.33
2022-09-23T16:46:01.297Z,12.89
2022-09-23T16:48:29.381Z,12.47
2022-09-23T16:50:57.414Z,12.07
2022-09-23T16:53:29.825Z,12.08
2022-09-23T16:56:00.545Z,13.75
2022-09-23T16:58:28.653Z,15.19
2022-09-23T17:01:16.649Z,15.58
2022-09-23T17:03:44.601Z,14.29
2022-09-23T17:06:13.746Z,13.11
2022-09-23T17:08:42.973Z,12.21
2022-09-23T17:11:11.121Z,12.01
2022-09-23T17:13:42.551Z,13.47
2022-09-23T17:16:21.745Z,14.62
2022-09-23T17:18:49.843Z,14.83
2022-09-23T17:21:17.849Z,13.58
2022-09-23T17:23:45.798Z,12.37
2022-09-23T17:26:15.283Z,11.84
2022-09-23T17:28:43.257Z,12.93
2022-09-23T17:31:11.287Z,13.79
2022-09-23T17:33:39.589Z,13.59
2022-09-23T17:36:09.700Z,12.38
2022-09-23T17:38:41.250Z,11.77
2022-09-23T17:41:10.020Z,12.87
2022-09-23T17:43:39.047Z,13.78
2022-09-23T17:46:10.271Z,13.87
2022-09-23T17:48:41.552Z,12.68
2022-09-23T17:51:17.563Z,11.90
2022-09-23T17:53:47.741Z,12.99
2022-09-23T17:56:15.627Z,13.92
2022-09-23T17:58:46.191Z,13.94
2022-09-23T18:01:19.819Z,12.68
2022-09-23T18:03:48.901Z,11.76
2022-09-23T18:06:19.442Z,12.57
2022-09-23T18:08:49.639Z,13.42
2022-09-23T18:11:21.270Z,13.52
2022-09-23T18:13:52.771Z,12.27
2022-09-23T18:16:23.174Z,11.73
2022-09-23T18:18:56.066Z,12.71
2022-09-23T18:21:27.270Z,13.46
2022-09-23T18:23:59.818Z,13.30
2022-09-23T18:26:35.309Z,11.89
2022-09-23T18:29:04.199Z,11.84
2022-09-23T18:31:35.437Z,12.82
2022-09-23T18:34:07.002Z,13.35
2022-09-23T18:36:35.180Z,13.12
2022-09-23T18:39:03.925Z,11.82
2022-09-23T18:41:32.064Z,11.11
2022-09-23T18:44:00.251Z,12.01
2022-09-23T18:46:30.206Z,12.84
2022-09-23T18:49:18.164Z,13.32
2022-09-23T18:51:56.030Z,13.03
2022-09-23T18:54:28.209Z,11.56
2022-09-23T18:56:56.839Z,11.74
2022-09-23T18:59:29.965Z,12.69
2022-09-23T19:01:59.683Z,13.26
2022-09-23T19:04:29.342Z,13.29
2022-09-23T19:06:58.213Z,12.03
2022-09-23T19:09:26.684Z,10.77
2022-09-23T19:11:54.911Z,11.19
2022-09-23T19:14:23.808Z,12.33
2022-09-23T19:16:52.218Z,12.95
2022-09-23T19:19:20.383Z,12.93
2022-09-23T19:21:48.523Z,11.67
2022-09-23T19:24:20.364Z,10.87
2022-09-23T19:26:50.432Z,11.86
2022-09-23T19:29:23.323Z,12.90
2022-09-23T19:31:51.364Z,13.63
2022-09-23T19:34:24.054Z,13.23
2022-09-23T19:36:53.065Z,11.73
2022-09-23T19:39:23.674Z,10.89
2022-09-23T19:41:52.809Z,11.81
2022-09-23T19:44:21.039Z,12.82
2022-09-23T19:46:55.112Z,12.91
2022-09-23T19:49:26.833Z,11.56
2022-09-23T19:51:56.347Z,10.74
2022-09-23T19:54:27.774Z,11.71
2022-09-23T19:56:56.461Z,12.54
2022-09-23T19:59:26.687Z,13.14
2022-09-23T20:01:55.046Z,13.07
2022-09-23T20:04:23.414Z,11.63
2022-09-23T20:06:51.756Z,10.68
2022-09-23T20:09:19.793Z,11.49
2022-09-23T20:11:47.866Z,12.32
2022-09-23T20:14:15.786Z,12.86
2022-09-23T20:16:44.446Z,12.78
2022-09-23T20:19:13.090Z,11.34
2022-09-23T20:21:41.037Z,10.86
2022-09-23T20:24:09.752Z,11.81
2022-09-23T20:26:56.415Z,12.56
2022-09-23T20:29:24.401Z,12.95
2022-09-23T20:31:52.407Z,12.75
2022-09-23T20:34:21.311Z,11.40
2022-09-23T20:36:49.305Z,10.54
2022-09-23T20:39:17.844Z,11.45
2022-09-23T20:41:46.251Z,12.42
2022-09-23T20:44:14.615Z,12.73
2022-09-23T20:46:48.465Z,11.48
2022-09-23T20:49:18.077Z,10.45
2022-09-23T20:51:50.542Z,11.24
2022-09-23T20:54:19.347Z,12.11
2022-09-23T20:56:48.805Z,12.54
2022-09-23T20:59:18.427Z,12.29
2022-09-23T21:01:47.906Z,10.93
2022-09-23T21:04:16.287Z,10.18
2022-09-23T21:06:44.317Z,10.95
2022-09-23T21:09:12.487Z,11.90
2022-09-23T21:11:40.701Z,12.49
2022-09-23T21:14:08.771Z,12.49
2022-09-23T21:16:36.873Z,11.16
2022-09-23T21:19:08.120Z,10.11
2022-09-23T21:21:36.426Z,10.88
2022-09-23T21:24:31.342Z,11.81
2022-09-23T21:26:52.614Z,12.27
2022-09-23T21:29:20.634Z,12.71
2022-09-23T21:31:49.839Z,12.56
2022-09-23T21:34:19.442Z,11.09
2022-09-23T21:36:48.137Z,10.08
2022-09-23T21:39:16.309Z,10.77
2022-09-23T21:41:44.396Z,11.64
2022-09-23T21:44:12.300Z,12.21
2022-09-23T21:46:40.312Z,12.30
2022-09-23T21:49:09.294Z,10.93
2022-09-23T21:51:41.350Z,10.07
2022-09-23T21:54:16.015Z,10.96
2022-09-23T21:56:44.610Z,11.81
2022-09-23T21:59:13.051Z,12.33
2022-09-23T22:01:45.207Z,12.11
2022-09-23T22:04:19.186Z,10.62
2022-09-23T22:06:49.741Z,9.86
2022-09-23T22:09:20.023Z,10.75
2022-09-23T22:12:09.787Z,11.56
2022-09-23T22:14:39.186Z,12.24
2022-09-23T22:17:10.628Z,12.26
2022-09-23T22:19:45.857Z,10.81
2022-09-23T22:22:17.829Z,9.79
2022-09-23T22:24:47.794Z,10.65
2022-09-23T22:27:18.243Z,11.49
2022-09-23T22:30:04.745Z,11.98
2022-09-23T22:32:43.660Z,11.86
2022-09-23T22:35:16.826Z,10.31
2022-09-23T22:37:46.254Z,9.56
2022-09-23T22:40:15.738Z,10.68
2022-09-23T22:42:44.237Z,11.62
2022-09-23T22:45:13.349Z,12.07
2022-09-23T22:47:45.618Z,11.88
2022-09-23T22:50:14.865Z,10.50
2022-09-23T22:52:43.410Z,9.70
2022-09-23T22:55:12.315Z,10.71
2022-09-23T22:57:40.233Z,11.55
2022-09-23T23:00:09.568Z,12.12
2022-09-23T23:02:37.590Z,12.29
2022-09-23T23:05:06.043Z,10.97
2022-09-23T23:07:36.315Z,9.58
2022-09-23T23:10:04.799Z,9.28
2022-09-23T23:12:33.689Z,10.47
2022-09-23T23:15:01.678Z,11.26
2022-09-23T23:17:30.044Z,11.74
2022-09-23T23:19:58.104Z,12.02
2022-09-23T23:22:28.671Z,11.86
2022-09-23T23:24:56.928Z,10.49
2022-09-23T23:27:24.841Z,9.62
2022-09-23T23:29:52.929Z,10.52
2022-09-23T23:32:20.836Z,11.38
2022-09-23T23:34:48.812Z,11.83
2022-09-23T23:37:20.618Z,11.71
2022-09-23T23:39:48.948Z,10.35
2022-09-23T23:42:17.158Z,9.47
2022-09-23T23:44:45.284Z,10.31
2022-09-23T23:47:13.197Z,11.28
2022-09-23T23:49:41.212Z,11.73
2022-09-23T23:52:09.247Z,11.53
2022-09-23T23:54:38.065Z,10.19
2022-09-23T23:57:06.033Z,9.35
2022-09-23T23:59:34.534Z,10.22
